createdAt,value
2023-04-16T00:01:01.077Z,95439.81
2023-04-16T00:03:27.744Z,95443.06
2023-04-16T00:05:55.953Z,95442.88
2023-04-16T00:08:22.517Z,95443.34
2023-04-16T00:10:48.978Z,95438.75
2023-04-16T00:13:15.391Z,95445.59
2023-04-16T00:15:41.856Z,95443.69
2023-04-16T00:18:08.298Z,95445.66
2023-04-16T00:20:34.704Z,95441.06
2023-04-16T00:23:02.515Z,95438.94
2023-04-16T00:25:28.945Z,95436.81
2023-04-16T00:27:55.431Z,95438.16
2023-04-16T00:30:22.034Z,95435.91
2023-04-16T00:32:48.548Z,95435.25
2023-04-16T00:35:15.021Z,95428.09
2023-04-16T00:37:41.683Z,95427.91
2023-04-16T00:40:10.733Z,95437.69
2023-04-16T00:42:37.166Z,95433.94
2023-04-16T00:45:03.921Z,95432.97
2023-04-16T00:47:30.851Z,95441.75
2023-04-16T00:49:57.359Z,95437.38
2023-04-16T00:52:23.777Z,95442.06
2023-04-16T00:54:50.280Z,95436.72
2023-04-16T00:57:18.076Z,95440.47
2023-04-16T00:59:44.552Z,95438.97
2023-04-16T01:02:11.163Z,95430.69
2023-04-16T01:04:37.724Z,95433.63
2023-04-16T01:07:04.375Z,95443.69
2023-04-16T01:09:30.873Z,95435.25
2023-04-16T01:11:57.318Z,95441.41
2023-04-16T01:14:25.185Z,95441.75
2023-04-16T01:16:51.626Z,95446.47
2023-04-16T01:19:18.082Z,95447.31
2023-04-16T01:21:45.896Z,95446.00
2023-04-16T01:24:12.361Z,95447.31
2023-04-16T01:26:38.779Z,95454.13
2023-04-16T01:29:05.264Z,95453.63
2023-04-16T01:31:31.732Z,95451.16
2023-04-16T01:33:58.235Z,95449.06
2023-04-16T01:36:24.693Z,95453.78
2023-04-16T01:38:52.580Z,95445.59
2023-04-16T01:41:19.108Z,95451.25
2023-04-16T01:43:45.525Z,95453.44
2023-04-16T01:46:12.791Z,95453.13
2023-04-16T01:48:39.250Z,95457.03
2023-04-16T01:51:05.720Z,95450.38
2023-04-16T01:53:32.559Z,95460.47
2023-04-16T01:56:00.362Z,95463.56
2023-04-16T01:58:28.033Z,95467.94
2023-04-16T02:00:54.485Z,95463.91
2023-04-16T02:03:21.070Z,95461.28
2023-04-16T02:05:47.616Z,95469.56
2023-04-16T02:08:14.052Z,95466.13
2023-04-16T02:10:40.542Z,95464.22
2023-04-16T02:13:08.363Z,95465.53
2023-04-16T02:15:34.801Z,95462.94
2023-04-16T02:18:01.313Z,95466.84
2023-04-16T02:20:27.827Z,95454.44
2023-04-16T02:22:54.315Z,95464.22
2023-04-16T02:25:20.741Z,95462.72
2023-04-16T02:27:47.340Z,95451.00
2023-04-16T02:30:15.132Z,95457.50
2023-04-16T02:32:41.607Z,95458.28
2023-04-16T02:35:08.148Z,95459.81
2023-04-16T02:37:34.621Z,95462.72
2023-04-16T02:40:01.104Z,95456.34
2023-04-16T02:42:27.538Z,95465.00
2023-04-16T02:44:54.002Z,95460.94
2023-04-16T02:47:21.843Z,95459.81
2023-04-16T02:49:48.350Z,95465.53
2023-04-16T02:52:15.711Z,95473.84
2023-04-16T02:54:42.235Z,95463.91
2023-04-16T02:57:08.678Z,95468.75
2023-04-16T02:59:35.268Z,95471.03
2023-04-16T03:02:01.756Z,95472.81
2023-04-16T03:04:29.619Z,95476.72
2023-04-16T03:06:56.112Z,95473.75
2023-04-16T03:09:22.591Z,95479.81
2023-04-16T03:11:49.066Z,95478.00
2023-04-16T03:14:15.551Z,95480.16
2023-04-16T03:16:41.974Z,95485.53
2023-04-16T03:19:08.702Z,95476.91
2023-04-16T03:21:36.743Z,95486.47
2023-04-16T03:24:03.296Z,95493.19
2023-04-16T03:26:29.768Z,95486.47
2023-04-16T03:28:56.285Z,95483.53
2023-04-16T03:31:23.798Z,95484.88
2023-04-16T03:33:50.322Z,95486.31
2023-04-16T03:36:16.808Z,95491.22
2023-04-16T03:38:44.628Z,95489.91
2023-04-16T03:41:11.093Z,95487.28
2023-04-16T03:43:37.583Z,95483.34
2023-04-16T03:46:04.069Z,95486.97
2023-04-16T03:48:30.516Z,95494.16
2023-04-16T03:50:57.008Z,95498.53
2023-04-16T03:53:23.441Z,95492.84
2023-04-16T03:55:51.329Z,95501.31
2023-04-16T03:58:17.866Z,95501.94
2023-04-16T04:00:44.415Z,95500.00
2023-04-16T04:03:11.029Z,95503.63
2023-04-16T04:05:37.759Z,95502.31
2023-04-16T04:08:04.393Z,95507.19
2023-04-16T04:10:31.762Z,95517.28
2023-04-16T04:12:59.604Z,95514.34
2023-04-16T04:15:26.084Z,95513.38
2023-04-16T04:17:52.557Z,95511.91
2023-04-16T04:20:19.042Z,95518.25
2023-04-16T04:22:45.513Z,95520.84
2023-04-16T04:25:11.961Z,95521.84
2023-04-16T04:27:38.406Z,95523.97
2023-04-16T04:30:07.146Z,95518.09
2023-04-16T04:32:33.649Z,95519.25
2023-04-16T04:35:00.909Z,95519.03
2023-04-16T04:37:27.364Z,95525.06
2023-04-16T04:39:53.845Z,95529.00
2023-04-16T04:42:20.562Z,95529.47
2023-04-16T04:44:47.132Z,95530.59
2023-04-16T04:47:15.040Z,95536.81
2023-04-16T04:49:41.490Z,95535.16
2023-04-16T04:52:07.968Z,95534.84
2023-04-16T04:54:34.473Z,95533.22
2023-04-16T04:57:00.900Z,95531.53
2023-04-16T04:59:27.388Z,95534.50
2023-04-16T05:01:53.877Z,95533.25
2023-04-16T05:04:22.053Z,95535.97
2023-04-16T05:06:48.477Z,95541.88
2023-04-16T05:09:14.983Z,95542.00
2023-04-16T05:11:41.830Z,95538.28
2023-04-16T05:14:08.288Z,95548.53
2023-04-16T05:16:36.066Z,95547.88
2023-04-16T05:19:02.563Z,95555.22
2023-04-16T05:21:30.412Z,95559.38
2023-04-16T05:23:56.859Z,95557.28
2023-04-16T05:26:23.303Z,95557.28
2023-04-16T05:28:49.762Z,95556.34
2023-04-16T05:31:16.384Z,95565.81
2023-04-16T05:33:42.936Z,95565.66
2023-04-16T05:36:09.370Z,95558.81
2023-04-16T05:38:37.232Z,95561.28
2023-04-16T05:41:03.682Z,95567.78
2023-04-16T05:43:30.175Z,95574.97
2023-04-16T05:45:56.599Z,95573.00
2023-04-16T05:48:23.133Z,95570.22
2023-04-16T05:50:49.589Z,95577.41
2023-04-16T05:53:16.076Z,95580.16
2023-04-16T05:55:43.956Z,95578.69
2023-04-16T05:58:10.387Z,95578.50
2023-04-16T06:00:36.827Z,95582.75
2023-04-16T06:03:03.460Z,95581.63
2023-04-16T06:05:30.157Z,95583.44
2023-04-16T06:07:56.664Z,95586.50
2023-04-16T06:10:23.276Z,95581.63
2023-04-16T06:12:51.138Z,95589.63
2023-04-16T06:15:17.638Z,95585.84
2023-04-16T06:17:44.176Z,95585.22
2023-04-16T06:20:11.596Z,95581.41
2023-04-16T06:22:38.015Z,95584.03
2023-04-16T06:25:04.854Z,95586.97
2023-04-16T06:27:31.338Z,95583.72
2023-04-16T06:29:59.214Z,95587.91
2023-04-16T06:32:25.720Z,95591.22
2023-04-16T06:34:52.155Z,95595.75
2023-04-16T06:37:18.603Z,95594.78
2023-04-16T06:39:45.073Z,95600.44
2023-04-16T06:42:11.504Z,95600.31
2023-04-16T06:44:37.986Z,95595.63
2023-04-16T06:47:05.897Z,95598.75
2023-04-16T06:49:32.506Z,95599.38
2023-04-16T06:51:58.992Z,95606.22
2023-04-16T06:54:25.519Z,95606.34
2023-04-16T06:56:51.959Z,95608.81
2023-04-16T06:59:18.584Z,95613.06
2023-04-16T07:01:45.136Z,95613.16
2023-04-16T07:04:13.286Z,95614.91
2023-04-16T07:06:39.771Z,95618.66
2023-04-16T07:09:06.209Z,95614.31
2023-04-16T07:11:32.687Z,95615.03
2023-04-16T07:13:59.175Z,95618.25
2023-04-16T07:16:25.861Z,95612.69
2023-04-16T07:18:52.368Z,95609.88
2023-04-16T07:21:20.242Z,95610.84
2023-04-16T07:23:46.704Z,95616.41
2023-04-16T07:26:13.214Z,95611.94
2023-04-16T07:28:39.670Z,95618.38
2023-04-16T07:31:06.125Z,95621.50
2023-04-16T07:33:32.592Z,95617.94
2023-04-16T07:35:59.059Z,95613.28
2023-04-16T07:38:26.913Z,95619.66
2023-04-16T07:40:53.352Z,95618.75
2023-04-16T07:43:19.769Z,95620.44
2023-04-16T07:45:46.272Z,95619.66
2023-04-16T07:48:12.793Z,95623.22
2023-04-16T07:50:39.237Z,95630.31
2023-04-16T07:53:05.714Z,95630.81
2023-04-16T07:55:33.559Z,95626.44
2023-04-16T07:58:00.052Z,95622.41
2023-04-16T08:00:26.493Z,95631.69
2023-04-16T08:02:53.205Z,95636.44
2023-04-16T08:05:19.870Z,95634.91
2023-04-16T08:07:46.503Z,95643.47
2023-04-16T08:10:13.079Z,95647.31
2023-04-16T08:12:40.911Z,95648.81
2023-04-16T08:15:07.801Z,95652.06
2023-04-16T08:17:34.323Z,95651.88
2023-04-16T08:20:00.890Z,95657.31
2023-04-16T08:22:27.515Z,95659.44
2023-04-16T08:24:54.016Z,95652.59
2023-04-16T08:27:20.568Z,95651.81
2023-04-16T08:29:48.514Z,95651.59
2023-04-16T08:32:14.969Z,95652.69
2023-04-16T08:34:41.669Z,95660.50
2023-04-16T08:37:08.100Z,95665.81
2023-04-16T08:39:34.640Z,95664.53
2023-04-16T08:42:01.073Z,95655.84
2023-04-16T08:44:27.927Z,95663.91
2023-04-16T08:46:55.916Z,95665.16
2023-04-16T08:49:22.381Z,95669.13
2023-04-16T08:51:49.891Z,95660.56
2023-04-16T08:54:16.349Z,95659.41
2023-04-16T08:56:43.303Z,95656.28
2023-04-16T08:59:10.037Z,95656.63
2023-04-16T09:01:36.721Z,95654.91
2023-04-16T09:04:04.999Z,95660.88
2023-04-16T09:06:31.611Z,95669.25
2023-04-16T09:08:58.057Z,95669.50
2023-04-16T09:11:24.520Z,95673.47
2023-04-16T09:13:50.930Z,95678.00
2023-04-16T09:16:17.399Z,95680.38
2023-04-16T09:18:43.895Z,95681.34
2023-04-16T09:21:11.702Z,95678.59
2023-04-16T09:23:38.294Z,95676.19
2023-04-16T09:26:04.833Z,95680.72
2023-04-16T09:28:41.126Z,95673.75
2023-04-16T09:31:08.103Z,95670.03
2023-04-16T09:33:35.041Z,95682.25
2023-04-16T09:36:01.762Z,95673.56
2023-04-16T09:38:30.023Z,95670.13
2023-04-16T09:41:05.732Z,95671.25
2023-04-16T09:43:55.434Z,95665.59
2023-04-16T09:46:22.042Z,95672.84
2023-04-16T09:48:48.561Z,95675.63
2023-04-16T09:51:15.036Z,95673.25
2023-04-16T09:56:26.576Z,95674.56
2023-04-16T09:58:59.809Z,95670.22
2023-04-16T10:01:26.324Z,95677.13
2023-04-16T10:03:53.705Z,95678.06
2023-04-16T10:06:20.737Z,95680.03
2023-04-16T10:08:50.235Z,95683.81
2023-04-16T10:11:17.476Z,95687.06
2023-04-16T10:13:43.969Z,95696.13
2023-04-16T10:16:10.707Z,95704.13
2023-04-16T10:18:37.481Z,95704.47
2023-04-16T10:21:04.189Z,95705.84
2023-04-16T10:23:30.677Z,95704.09
2023-04-16T10:25:58.959Z,95701.72
2023-04-16T10:28:25.471Z,95703.75
2023-04-16T10:30:51.971Z,95702.25
2023-04-16T10:33:19.798Z,95703.28
2023-04-16T10:35:52.330Z,95699.38
2023-04-16T10:38:28.748Z,95693.31
2023-04-16T10:40:59.968Z,95695.84
2023-04-16T10:43:26.428Z,95695.25
2023-04-16T10:45:52.910Z,95690.84
2023-04-16T10:48:19.400Z,95689.56
2023-04-16T10:50:53.622Z,95694.91
2023-04-16T10:53:20.811Z,95693.25
2023-04-16T10:55:56.917Z,95689.44
2023-04-16T10:58:31.608Z,95691.91
2023-04-16T11:00:59.273Z,95694.94
2023-04-16T11:03:25.980Z,95695.25
2023-04-16T11:05:52.560Z,95700.38
2023-04-16T11:08:19.025Z,95694.44
2023-04-16T11:10:45.476Z,95693.19
2023-04-16T11:13:12.314Z,95693.38
2023-04-16T11:15:40.152Z,95690.97
2023-04-16T11:18:06.845Z,95703.91
2023-04-16T11:20:33.366Z,95702.06
2023-04-16T11:22:59.821Z,95703.16
2023-04-16T11:25:27.071Z,95705.56
2023-04-16T11:27:53.606Z,95709.09
2023-04-16T11:30:28.126Z,95707.16
2023-04-16T11:32:58.355Z,95711.53
2023-04-16T11:35:25.081Z,95711.81
2023-04-16T11:37:55.346Z,95709.09
2023-04-16T11:40:21.819Z,95703.63
2023-04-16T11:42:48.232Z,95712.69
2023-04-16T11:45:14.689Z,95717.94
2023-04-16T11:47:44.596Z,95708.81
2023-04-16T11:50:19.544Z,95717.91
2023-04-16T11:52:46.577Z,95719.03
2023-04-16T11:55:13.054Z,95721.25
2023-04-16T11:57:39.555Z,95710.94
2023-04-16T12:00:08.598Z,95710.25
2023-04-16T12:02:37.325Z,95719.59
2023-04-16T12:05:04.139Z,95720.72
2023-04-16T12:07:31.964Z,95718.63
2023-04-16T12:10:08.057Z,95721.25
2023-04-16T12:12:34.876Z,95718.91
2023-04-16T12:15:01.463Z,95719.16
2023-04-16T12:17:27.982Z,95724.88
2023-04-16T12:19:56.106Z,95719.97
2023-04-16T12:22:29.251Z,95731.38
2023-04-16T12:24:57.555Z,95736.00
2023-04-16T12:27:24.066Z,95730.34
2023-04-16T12:30:02.478Z,95732.78
2023-04-16T12:32:29.057Z,95726.72
2023-04-16T12:34:55.505Z,95732.13
2023-04-16T12:37:21.990Z,95729.69
2023-04-16T12:39:48.439Z,95739.13
2023-04-16T12:42:16.357Z,95733.13
2023-04-16T12:44:42.806Z,95732.44
2023-04-16T12:47:12.398Z,95740.16
2023-04-16T12:49:38.847Z,95738.91
2023-04-16T12:52:05.429Z,95746.03
2023-04-16T12:57:20.055Z,95740.53
2023-04-16T12:59:46.672Z,95731.41
2023-04-16T13:02:13.425Z,95740.41
2023-04-16T13:04:40.100Z,95739.25
2023-04-16T13:07:06.671Z,95733.06
2023-04-16T13:09:33.124Z,95730.84
2023-04-16T13:11:59.592Z,95724.09
2023-04-16T13:14:27.396Z,95728.06
2023-04-16T13:16:53.942Z,95735.28
2023-04-16T13:19:20.526Z,95725.41
2023-04-16T13:21:46.979Z,95724.53
2023-04-16T13:24:13.477Z,95730.78
2023-04-16T13:26:39.933Z,95737.44
2023-04-16T13:29:06.376Z,95732.88
2023-04-16T13:31:34.233Z,95735.63
2023-04-16T13:34:00.676Z,95741.25
2023-04-16T13:36:27.657Z,95734.88
2023-04-16T13:38:54.371Z,95740.75
2023-04-16T13:41:20.875Z,95743.03
2023-04-16T13:43:47.427Z,95741.53
2023-04-16T13:46:13.916Z,95742.38
2023-04-16T13:48:41.759Z,95749.09
2023-04-16T13:51:08.362Z,95749.22
2023-04-16T13:53:34.862Z,95741.84
2023-04-16T13:56:01.302Z,95748.09
2023-04-16T13:58:27.775Z,95747.91
2023-04-16T14:01:06.412Z,95750.16
2023-04-16T14:06:18.870Z,95746.47
2023-04-16T14:08:45.329Z,95744.22
2023-04-16T14:11:11.817Z,95754.28
2023-04-16T14:13:38.217Z,95744.91
2023-04-16T14:16:05.088Z,95743.38
2023-04-16T14:18:31.562Z,95749.22
2023-04-16T14:20:58.022Z,95752.34
2023-04-16T14:23:25.868Z,95751.91
2023-04-16T14:25:52.334Z,95761.28
2023-04-16T14:28:43.250Z,95747.66
2023-04-16T14:31:09.799Z,95753.78
2023-04-16T14:33:39.297Z,95751.66
2023-04-16T14:36:06.226Z,95754.03
2023-04-16T14:38:39.880Z,95745.53
2023-04-16T14:41:06.345Z,95742.16
2023-04-16T14:43:32.773Z,95749.25
2023-04-16T14:45:59.309Z,95749.19
2023-04-16T14:48:26.035Z,95751.66
2023-04-16T14:50:52.670Z,95746.63
2023-04-16T14:53:19.156Z,95756.53
2023-04-16T14:55:47.054Z,95758.53
2023-04-16T14:58:13.463Z,95754.22
2023-04-16T15:00:39.969Z,95756.53
2023-04-16T15:03:06.633Z,95749.63
2023-04-16T15:05:33.235Z,95768.53
2023-04-16T15:07:59.691Z,95767.78
2023-04-16T15:10:28.963Z,95770.00
2023-04-16T15:12:56.772Z,95770.88
2023-04-16T15:15:23.215Z,95763.59
2023-04-16T15:17:49.980Z,95765.88
2023-04-16T15:20:16.438Z,95757.53
2023-04-16T15:22:42.872Z,95761.53
2023-04-16T15:25:09.640Z,95765.03
2023-04-16T15:27:36.077Z,95762.22
2023-04-16T15:30:04.296Z,95757.25
2023-04-16T15:32:31.038Z,95758.59
2023-04-16T15:34:57.619Z,95758.81
2023-04-16T15:37:24.095Z,95761.25
2023-04-16T15:39:50.580Z,95771.84
2023-04-16T15:42:16.996Z,95759.91
2023-04-16T15:44:43.459Z,95765.41
2023-04-16T15:47:11.287Z,95763.31
2023-04-16T15:49:40.486Z,95774.19
2023-04-16T15:52:07.104Z,95771.25
2023-04-16T15:54:33.547Z,95769.50
2023-04-16T15:56:59.965Z,95773.84
2023-04-16T15:59:26.456Z,95770.06
2023-04-16T16:01:52.964Z,95774.50
2023-04-16T16:04:21.015Z,95773.63
2023-04-16T16:06:47.456Z,95774.97
2023-04-16T16:09:13.927Z,95775.06
2023-04-16T16:14:49.813Z,95777.56
2023-04-16T16:17:16.295Z,95776.41
2023-04-16T16:19:45.842Z,95782.31
2023-04-16T16:22:12.836Z,95784.03
2023-04-16T16:24:39.337Z,95790.22
2023-04-16T16:27:05.792Z,95785.38
2023-04-16T16:29:32.225Z,95783.63
2023-04-16T16:31:58.761Z,95784.66
2023-04-16T16:34:25.286Z,95786.41
2023-04-16T16:36:53.108Z,95778.75
2023-04-16T16:39:19.510Z,95777.44
2023-04-16T16:41:46.012Z,95782.13
2023-04-16T16:44:12.432Z,95781.84
2023-04-16T16:46:38.903Z,95784.94
2023-04-16T16:49:05.361Z,95787.00
2023-04-16T16:51:31.987Z,95787.56
2023-04-16T16:53:59.789Z,95781.22
2023-04-16T16:56:26.218Z,95788.44
2023-04-16T16:58:52.657Z,95793.28
2023-04-16T17:01:19.129Z,95795.81
2023-04-16T17:03:45.666Z,95782.78
2023-04-16T17:06:12.181Z,95789.47
2023-04-16T17:08:38.670Z,95797.09
2023-04-16T17:11:06.492Z,95794.72
2023-04-16T17:13:32.963Z,95792.75
2023-04-16T17:15:59.419Z,95793.13
2023-04-16T17:18:25.885Z,95797.75
2023-04-16T17:20:52.368Z,95797.88
2023-04-16T17:23:18.799Z,95799.44
2023-04-16T17:25:45.237Z,95797.41
2023-04-16T17:28:13.136Z,95796.41
2023-04-16T17:30:41.925Z,95800.78
2023-04-16T17:33:13.507Z,95804.81
2023-04-16T17:35:42.597Z,95806.94
2023-04-16T17:38:12.181Z,95818.50
2023-04-16T17:40:44.413Z,95811.72
2023-04-16T17:43:29.782Z,95815.09
2023-04-16T17:45:56.252Z,95821.88
2023-04-16T17:48:23.008Z,95819.19
2023-04-16T17:50:49.904Z,95812.97
2023-04-16T17:53:16.340Z,95816.06
2023-04-16T17:55:49.693Z,95823.16
2023-04-16T17:58:17.541Z,95828.31
2023-04-16T18:00:45.619Z,95828.81
2023-04-16T18:03:12.180Z,95837.03
2023-04-16T18:05:38.832Z,95840.75
2023-04-16T18:08:05.481Z,95841.91
2023-04-16T18:10:32.059Z,95841.81
2023-04-16T18:12:58.508Z,95844.53
2023-04-16T18:15:26.451Z,95846.00
2023-04-16T18:17:53.153Z,95845.53
2023-04-16T18:20:19.701Z,95850.84
2023-04-16T18:22:46.422Z,95854.16
2023-04-16T18:25:12.909Z,95862.41
2023-04-16T18:27:39.377Z,95856.69
2023-04-16T18:30:06.452Z,95860.06
2023-04-16T18:32:34.328Z,95864.53
2023-04-16T18:35:00.823Z,95869.69
2023-04-16T18:37:27.292Z,95873.47
2023-04-16T18:39:54.024Z,95870.66
2023-04-16T18:42:21.169Z,95869.50
2023-04-16T18:44:51.216Z,95876.72
2023-04-16T18:47:17.796Z,95871.88
2023-04-16T18:49:45.834Z,95882.22
2023-04-16T18:52:12.303Z,95883.72
2023-04-16T18:54:38.753Z,95883.41
2023-04-16T18:57:08.216Z,95885.16
2023-04-16T18:59:34.657Z,95890.84
2023-04-16T19:02:01.164Z,95880.72
2023-04-16T19:04:27.693Z,95891.16
2023-04-16T19:06:55.719Z,95893.72
2023-04-16T19:09:22.181Z,95900.69
2023-04-16T19:11:48.625Z,95898.25
2023-04-16T19:14:15.103Z,95907.00
2023-04-16T19:16:42.013Z,95901.88
2023-04-16T19:19:08.682Z,95906.41
2023-04-16T19:21:35.321Z,95905.59
2023-04-16T19:24:03.222Z,95910.03
2023-04-16T19:26:29.750Z,95910.47
2023-04-16T19:28:56.204Z,95914.06
2023-04-16T19:31:22.807Z,95912.47
2023-04-16T19:33:49.404Z,95913.41
2023-04-16T19:36:15.829Z,95907.78
2023-04-16T19:38:42.701Z,95911.94
2023-04-16T19:41:10.565Z,95917.47
2023-04-16T19:43:36.991Z,95913.06
2023-04-16T19:46:03.449Z,95911.53
2023-04-16T19:48:29.950Z,95917.91
2023-04-16T19:50:56.369Z,95921.03
2023-04-16T19:53:22.854Z,95913.75
2023-04-16T19:55:49.304Z,95915.69
2023-04-16T19:58:17.201Z,95911.88
2023-04-16T20:00:43.993Z,95912.81
2023-04-16T20:03:10.638Z,95919.81
2023-04-16T20:05:37.106Z,95926.06
2023-04-16T20:08:03.693Z,95923.09
2023-04-16T20:10:30.151Z,95921.81
2023-04-16T20:12:56.595Z,95930.09
2023-04-16T20:15:24.564Z,95926.63
2023-04-16T20:17:51.060Z,95928.19
2023-04-16T20:20:17.625Z,95925.50
2023-04-16T20:22:44.107Z,95924.78
2023-04-16T20:25:10.679Z,95921.53
2023-04-16T20:27:37.131Z,95916.28
2023-04-16T20:30:03.961Z,95913.28
2023-04-16T20:32:31.820Z,95909.25
2023-04-16T20:34:58.324Z,95909.16
2023-04-16T20:37:24.805Z,95911.78
2023-04-16T20:39:51.456Z,95915.06
2023-04-16T20:42:17.868Z,95914.03
2023-04-16T20:44:44.280Z,95911.72
2023-04-16T20:47:11.334Z,95906.13
2023-04-16T20:49:39.185Z,95911.03
2023-04-16T20:52:05.655Z,95912.84
2023-04-16T20:54:32.086Z,95907.25
2023-04-16T20:56:58.767Z,95911.97
2023-04-16T20:59:25.200Z,95917.16
2023-04-16T21:01:51.786Z,95908.94
2023-04-16T21:04:18.381Z,95910.53
2023-04-16T21:06:48.597Z,95911.63
2023-04-16T21:09:15.015Z,95906.41
2023-04-16T21:11:44.237Z,95910.84
2023-04-16T21:14:10.704Z,95909.75
2023-04-16T21:16:37.210Z,95914.84
2023-04-16T21:19:03.798Z,95913.03
2023-04-16T21:21:30.309Z,95912.69
2023-04-16T21:23:58.126Z,95918.59
2023-04-16T21:26:24.559Z,95919.16
2023-04-16T21:28:51.588Z,95924.25
2023-04-16T21:31:18.779Z,95924.88
2023-04-16T21:33:45.226Z,95921.28
2023-04-16T21:36:11.676Z,95930.44
2023-04-16T21:38:38.127Z,95926.03
2023-04-16T21:41:05.928Z,95917.53
2023-04-16T21:43:32.440Z,95926.50
2023-04-16T21:45:58.955Z,95923.03
2023-04-16T21:48:25.505Z,95922.53
2023-04-16T21:50:55.416Z,95930.44
2023-04-16T21:53:21.869Z,95921.94
2023-04-16T21:55:48.325Z,95931.75
2023-04-16T21:58:16.160Z,95921.28
2023-04-16T22:00:42.800Z,95926.84
2023-04-16T22:03:09.391Z,95927.16
2023-04-16T22:05:36.011Z,95924.16
2023-04-16T22:08:10.874Z,95924.53
2023-04-16T22:10:47.890Z,95917.22
2023-04-16T22:13:15.765Z,95916.91
2023-04-16T22:15:42.229Z,95918.50
2023-04-16T22:18:08.699Z,95924.25
2023-04-16T22:20:35.665Z,95914.28
2023-04-16T22:23:02.167Z,95914.31
2023-04-16T22:25:28.673Z,95911.38
2023-04-16T22:27:55.198Z,95909.41
2023-04-16T22:30:23.054Z,95907.25
2023-04-16T22:32:49.560Z,95909.88
2023-04-16T22:35:16.147Z,95905.84
2023-04-16T22:37:42.570Z,95901.13
2023-04-16T22:40:09.418Z,95906.06
2023-04-16T22:42:35.899Z,95905.91
2023-04-16T22:45:02.454Z,95904.94
2023-04-16T22:47:30.265Z,95902.25
2023-04-16T22:49:56.744Z,95905.25
2023-04-16T22:52:23.259Z,95902.00
2023-04-16T22:54:49.690Z,95902.00
2023-04-16T22:57:16.137Z,95909.03
2023-04-16T22:59:42.658Z,95907.88
2023-04-16T23:02:09.116Z,95909.03
2023-04-16T23:04:37.036Z,95904.63
2023-04-16T23:07:03.510Z,95906.91
2023-04-16T23:09:29.955Z,95911.16
2023-04-16T23:11:56.420Z,95903.34
2023-04-16T23:14:22.870Z,95903.81
2023-04-16T23:16:49.326Z,95903.16
2023-04-16T23:19:15.893Z,95905.31
2023-04-16T23:21:43.723Z,95912.53
2023-04-16T23:24:10.187Z,95906.16
2023-04-16T23:26:36.866Z,95912.53
2023-04-16T23:29:03.363Z,95907.31
2023-04-16T23:31:29.842Z,95907.59
2023-04-16T23:33:56.477Z,95917.25
2023-04-16T23:36:22.939Z,95902.72
2023-04-16T23:38:50.737Z,95906.97
2023-04-16T23:41:17.189Z,95906.63
2023-04-16T23:43:43.665Z,95910.41
2023-04-16T23:46:10.132Z,95912.03
2023-04-16T23:48:36.586Z,95918.38
2023-04-16T23:51:03.218Z,95917.91
2023-04-16T23:53:29.698Z,95913.00
2023-04-16T23:55:57.484Z,95913.31
2023-04-16T23:58:23.920Z,95905.50
